Time;durP1;ratioP1;P1;durP2;ratioP2;P2;SDS_P1;SDS_P2;PMS_P1;PMS_P2;Temp;Humidity;BMP_temperature;BMP_pressure;BME280_temperature;BME280_humidity;BME280_pressure;Samples;Min_cycle;Max_cycle;Signal;HPM_P1;HPM_P2
2022/09/01 00:01:53;;;;;;;7.93;4.05;;;19.40;68.30;;;;;;4994990;28;20030;-69
2022/09/01 00:04:21;;;;;;;3.70;3.33;;;19.40;68.40;;;;;;4995141;28;20488;-68
2022/09/01 00:06:48;;;;;;;4.03;3.63;;;19.40;68.40;;;;;;4995061;28;20421;-68
2022/09/01 00:09:17;;;;;;;8.40;3.90;;;19.30;68.40;;;;;;4994851;28;20052;-68
2022/09/01 00:11:47;;;;;;;7.38;4.43;;;19.30;68.80;;;;;;4994654;28;20042;-69
2022/09/01 00:14:14;;;;;;;5.00;3.58;;;19.30;69.00;;;;;;4994888;28;20022;-69
2022/09/01 00:16:40;;;;;;;5.63;3.88;;;19.30;69.00;;;;;;4997757;28;20040;-69
2022/09/01 00:19:05;;;;;;;4.43;3.55;;;19.30;69.00;;;;;;5014606;28;20030;-68
2022/09/01 00:21:42;;;;;;;8.82;4.13;;;19.30;69.00;;;;;;5000279;28;20034;-69
2022/09/01 00:24:09;;;;;;;10.00;4.03;;;19.30;68.90;;;;;;5034228;28;20028;-69
2022/09/01 00:26:35;;;;;;;3.72;2.53;;;19.30;68.80;;;;;;5034178;28;20025;-69
2022/09/01 00:29:02;;;;;;;3.55;3.20;;;19.30;68.70;;;;;;5034112;28;20022;-69
2022/09/01 00:31:28;;;;;;;4.97;3.15;;;19.30;68.70;;;;;;5034654;28;20025;-69
2022/09/01 00:33:54;;;;;;;3.53;3.10;;;19.20;68.70;;;;;;5045068;28;20033;-69
2022/09/01 00:36:21;;;;;;;4.07;2.97;;;19.20;68.70;;;;;;5015983;28;20256;-69
2022/09/01 00:38:47;;;;;;;4.93;3.17;;;19.20;68.70;;;;;;5038120;28;20013;-68
2022/09/01 00:41:15;;;;;;;4.30;3.35;;;19.10;68.60;;;;;;5036746;28;20029;-68
2022/09/01 00:43:53;;;;;;;6.47;3.83;;;19.10;68.60;;;;;;5033742;28;20033;-69
2022/09/01 00:46:25;;;;;;;4.65;3.85;;;19.10;68.80;;;;;;5034493;28;20096;-68
2022/09/01 00:48:56;;;;;;;4.38;3.78;;;19.10;68.90;;;;;;5033514;28;20092;-68
2022/09/01 00:51:22;;;;;;;3.50;2.95;;;19.10;69.00;;;;;;5033730;28;20018;-69
2022/09/01 00:53:48;;;;;;;8.93;3.92;;;19.00;68.90;;;;;;5015849;28;20025;-69
2022/09/01 00:56:15;;;;;;;3.47;3.13;;;19.10;69.20;;;;;;5033653;28;20018;-69
2022/09/01 00:58:41;;;;;;;5.00;3.83;;;19.00;69.30;;;;;;5035859;28;20487;-69
2022/09/01 01:01:09;;;;;;;5.78;3.53;;;19.10;69.30;;;;;;5033187;28;20036;-69
2022/09/01 01:03:35;;;;;;;4.10;3.30;;;19.10;69.20;;;;;;5048275;28;20028;-68
2022/09/01 01:06:07;;;;;;;4.47;3.53;;;19.10;69.20;;;;;;5053284;28;20082;-68
2022/09/01 01:08:37;;;;;;;3.92;3.30;;;19.10;69.20;;;;;;5052490;28;20013;-69
2022/09/01 01:11:18;;;;;;;4.63;3.55;;;19.10;69.30;;;;;;5041315;28;20032;-69
2022/09/01 01:13:49;;;;;;;6.70;3.65;;;19.10;69.40;;;;;;5033268;28;20025;-69
2022/09/01 01:16:16;;;;;;;3.92;3.40;;;19.10;69.30;;;;;;5048522;28;20517;-69
2022/09/01 01:18:42;;;;;;;3.78;3.38;;;19.20;69.40;;;;;;5051406;28;20522;-69
2022/09/01 01:24:20;;;;;;;3.42;3.13;;;19.10;69.20;;;;;;5033100;28;20410;-69
2022/09/01 01:26:46;;;;;;;4.03;3.63;;;19.20;69.30;;;;;;5033377;28;20368;-69
2022/09/01 01:29:13;;;;;;;4.90;3.55;;;19.20;69.20;;;;;;5032882;28;20058;-68
2022/09/01 01:31:39;;;;;;;5.40;3.38;;;19.30;69.20;;;;;;5032961;28;20024;-69
2022/09/01 01:34:06;;;;;;;4.32;3.28;;;19.20;69.20;;;;;;5033069;28;20018;-69
2022/09/01 01:36:35;;;;;;;5.20;3.88;;;19.20;69.30;;;;;;5033525;28;20026;-69
2022/09/01 01:39:24;;;;;;;3.95;3.55;;;19.20;69.20;;;;;;5052813;28;20112;-69
2022/09/01 01:41:52;;;;;;;5.30;3.33;;;19.20;69.20;;;;;;5052719;28;20017;-69
2022/09/01 01:44:26;;;;;;;4.25;3.65;;;19.30;69.10;;;;;;5052799;28;20104;-69
2022/09/01 01:46:54;;;;;;;3.92;3.53;;;19.30;69.10;;;;;;5044121;28;20028;-69
2022/09/01 01:49:23;;;;;;;4.40;3.58;;;19.30;69.00;;;;;;5032831;28;20100;-70
2022/09/01 01:51:56;;;;;;;3.60;2.90;;;19.30;69.10;;;;;;5032834;28;20018;-68
2022/09/01 01:54:24;;;;;;;5.70;3.30;;;19.30;69.00;;;;;;5032832;28;20071;-69
2022/09/01 01:56:50;;;;;;;7.75;3.47;;;19.30;69.00;;;;;;5032733;28;20040;-69
2022/09/01 01:59:16;;;;;;;3.80;3.40;;;19.30;69.00;;;;;;5032648;28;20025;-68
2022/09/01 02:01:47;;;;;;;5.30;3.28;;;19.30;69.00;;;;;;5032628;28;20080;-68
2022/09/01 02:04:15;;;;;;;6.18;3.28;;;19.30;69.00;;;;;;5032715;28;20025;-69
2022/09/01 02:06:45;;;;;;;6.70;3.17;;;19.30;69.10;;;;;;5032650;28;20018;-69
2022/09/01 02:09:12;;;;;;;3.80;3.05;;;19.30;69.00;;;;;;5032572;28;20472;-68
2022/09/01 02:11:38;;;;;;;4.43;3.25;;;19.30;69.00;;;;;;5049495;28;20021;-68
2022/09/01 02:14:06;;;;;;;7.55;3.15;;;19.30;69.00;;;;;;5051222;28;20075;-69
2022/09/01 02:16:33;;;;;;;6.53;3.45;;;19.30;69.00;;;;;;5051413;28;20040;-69
2022/09/01 02:19:00;;;;;;;6.20;3.80;;;19.30;69.10;;;;;;5012853;28;20061;-69
2022/09/01 02:21:26;;;;;;;3.90;3.35;;;19.30;69.10;;;;;;5015821;28;20029;-70
2022/09/01 02:23:59;;;;;;;5.45;3.95;;;19.30;69.10;;;;;;5020496;28;20097;-69
2022/09/01 02:26:47;;;;;;;4.57;3.73;;;19.30;69.10;;;;;;5036370;28;20026;-68
2022/09/01 02:29:25;;;;;;;4.47;3.53;;;19.30;68.90;;;;;;5051679;28;20045;-69
2022/09/01 02:31:52;;;;;;;3.55;2.85;;;19.30;68.60;;;;;;5036231;28;20025;-69
2022/09/01 02:34:20;;;;;;;16.73;4.07;;;19.30;68.50;;;;;;5036333;28;20111;-70
2022/09/01 02:36:52;;;;;;;4.05;3.38;;;19.30;69.20;;;;;;5034859;28;20018;-68
2022/09/01 02:39:22;;;;;;;3.83;3.28;;;19.20;68.20;;;;;;5036061;28;20026;-68
2022/09/01 02:41:48;;;;;;;5.57;3.67;;;19.10;68.10;;;;;;5036149;28;20029;-69
2022/09/01 02:44:15;;;;;;;3.88;3.53;;;19.10;68.00;;;;;;5036258;28;20394;-69
2022/09/01 02:46:43;;;;;;;3.78;2.97;;;19.00;68.00;;;;;;5051859;28;20378;-68
2022/09/01 02:49:14;;;;;;;3.53;3.03;;;18.90;68.00;;;;;;5040384;28;20057;-68
2022/09/01 02:51:44;;;;;;;4.00;3.30;;;18.90;67.90;;;;;;5035858;28;20032;-69
2022/09/01 02:54:16;;;;;;;3.67;3.38;;;18.80;67.90;;;;;;5035857;28;20025;-69
2022/09/01 02:56:46;;;;;;;5.10;3.30;;;18.70;67.90;;;;;;5035794;28;20068;-68
2022/09/01 02:59:16;;;;;;;3.53;3.22;;;18.60;68.00;;;;;;5035722;28;20049;-69
2022/09/01 03:01:44;;;;;;;5.28;3.70;;;18.50;68.10;;;;;;5034330;28;20447;-69
2022/09/01 03:04:11;;;;;;;4.57;3.33;;;18.50;68.40;;;;;;5047084;28;20021;-68
2022/09/01 03:06:38;;;;;;;3.70;3.33;;;18.40;68.50;;;;;;5055406;28;20021;-69
2022/09/01 03:09:08;;;;;;;3.30;2.85;;;18.30;68.70;;;;;;5054081;28;20415;-69
2022/09/01 03:11:37;;;;;;;4.00;3.60;;;18.30;68.80;;;;;;5055414;28;20483;-69
2022/09/01 03:14:04;;;;;;;4.00;3.60;;;18.20;68.90;;;;;;5055289;28;20033;-68
2022/09/01 03:16:30;;;;;;;4.72;3.40;;;18.10;68.90;;;;;;5053761;28;20053;-69
2022/09/01 03:18:56;;;;;;;7.28;3.72;;;18.10;69.20;;;;;;5054071;28;20458;-69
2022/09/01 03:21:22;;;;;;;6.90;4.32;;;18.00;69.30;;;;;;5054760;28;20029;-69
2022/09/01 03:23:51;;;;;;;4.45;3.42;;;18.00;69.70;;;;;;5055130;28;20029;-68
2022/09/01 03:26:20;;;;;;;5.00;3.03;;;18.00;69.80;;;;;;5055104;28;20426;-69
2022/09/01 03:28:47;;;;;;;5.32;3.70;;;17.90;70.00;;;;;;5053828;28;20100;-69
2022/09/01 03:31:14;;;;;;;3.63;3.33;;;17.90;70.10;;;;;;5049278;28;20633;-69
2022/09/01 03:33:41;;;;;;;4.68;4.18;;;17.90;70.10;;;;;;5034880;28;20037;-68
2022/09/01 03:36:07;;;;;;;5.10;4.00;;;17.90;70.40;;;;;;5034986;28;20025;-68
2022/09/01 03:38:34;;;;;;;3.80;3.40;;;17.90;70.50;;;;;;5034941;28;20105;-70
2022/09/01 03:41:04;;;;;;;4.32;3.15;;;17.90;70.60;;;;;;5017399;28;20068;-68
2022/09/01 03:43:32;;;;;;;5.43;3.30;;;17.90;71.00;;;;;;5034863;28;20033;-68
2022/09/01 03:45:59;;;;;;;8.05;3.72;;;17.90;71.00;;;;;;5034991;28;20090;-69
2022/09/01 03:48:27;;;;;;;3.65;3.17;;;17.90;71.10;;;;;;5033253;28;20030;-68
2022/09/01 03:50:55;;;;;;;3.95;3.55;;;18.00;71.20;;;;;;5034698;28;20463;-68
2022/09/01 03:53:24;;;;;;;8.18;3.50;;;18.00;71.20;;;;;;5034558;28;20493;-69
2022/09/01 03:55:51;;;;;;;4.35;3.47;;;18.10;71.30;;;;;;5034599;28;20028;-68
2022/09/01 03:58:18;;;;;;;10.55;3.80;;;18.00;71.20;;;;;;5034716;28;20061;-69
2022/09/01 04:00:47;;;;;;;8.65;3.83;;;18.10;71.00;;;;;;5031874;28;20044;-69
2022/09/01 04:03:15;;;;;;;3.50;3.20;;;18.10;70.70;;;;;;5034716;28;20021;-69
2022/09/01 04:05:44;;;;;;;4.97;3.58;;;18.10;70.30;;;;;;5034144;28;20079;-68
2022/09/01 04:08:12;;;;;;;5.68;3.63;;;18.10;70.10;;;;;;5054321;28;20025;-69
2022/09/01 04:10:49;;;;;;;3.60;3.28;;;18.10;70.00;;;;;;5054093;28;20470;-68
2022/09/01 04:13:21;;;;;;;4.35;3.25;;;18.00;70.10;;;;;;5052978;28;20116;-69
2022/09/01 04:15:48;;;;;;;6.97;3.83;;;18.00;70.00;;;;;;5054216;28;20067;-69
2022/09/01 04:18:22;;;;;;;3.88;3.53;;;17.90;69.90;;;;;;5053259;28;20033;-69
2022/09/01 04:20:50;;;;;;;5.00;3.25;;;17.90;70.10;;;;;;5035444;28;20490;-69
2022/09/01 04:23:29;;;;;;;6.47;3.28;;;17.80;70.10;;;;;;5053705;28;20055;-69
2022/09/01 04:26:07;;;;;;;4.18;3.20;;;17.80;70.30;;;;;;5053938;28;20021;-69
2022/09/01 04:28:38;;;;;;;3.88;2.92;;;17.80;70.10;;;;;;5053895;28;20534;-69
2022/09/01 04:31:08;;;;;;;3.50;3.03;;;17.80;70.00;;;;;;5038385;28;20029;-68
2022/09/01 04:33:38;;;;;;;4.43;3.28;;;17.80;70.10;;;;;;5033876;28;20036;-68
2022/09/01 04:36:18;;;;;;;6.90;3.58;;;17.70;70.10;;;;;;5037389;28;20018;-69
2022/09/01 04:38:45;;;;;;;5.35;3.40;;;17.70;70.20;;;;;;5035089;28;20105;-68
2022/09/01 04:41:16;;;;;;;4.55;3.03;;;17.70;70.10;;;;;;5033709;28;20075;-68
2022/09/01 04:43:46;;;;;;;3.80;3.40;;;17.70;70.10;;;;;;5033523;28;20025;-69
2022/09/01 04:46:15;;;;;;;4.63;3.13;;;17.70;70.30;;;;;;5033449;28;20024;-69
2022/09/01 04:48:44;;;;;;;4.80;3.40;;;17.70;70.40;;;;;;5049679;28;20437;-69
2022/09/01 04:51:11;;;;;;;3.47;3.08;;;17.60;70.50;;;;;;5053488;28;20383;-69
2022/09/01 04:53:42;;;;;;;3.55;2.58;;;17.70;70.50;;;;;;5053364;28;20387;-69
2022/09/01 04:56:11;;;;;;;7.07;2.50;;;17.70;70.70;;;;;;5053354;28;20383;-69
2022/09/01 04:58:37;;;;;;;4.38;2.88;;;17.70;70.80;;;;;;5052465;28;20386;-69
2022/09/01 05:01:14;;;;;;;3.33;3.00;;;17.70;70.90;;;;;;5037248;28;20028;-69
2022/09/01 05:03:40;;;;;;;3.17;2.88;;;17.80;71.00;;;;;;5033305;28;20029;-68
2022/09/01 05:06:13;;;;;;;6.05;3.33;;;17.80;71.10;;;;;;5033277;28;20025;-68
2022/09/01 05:08:38;;;;;;;8.10;3.70;;;17.80;71.20;;;;;;5033349;28;20100;-68
2022/09/01 05:11:06;;;;;;;5.60;3.50;;;17.90;71.30;;;;;;5033170;28;20105;-68
2022/09/01 05:13:34;;;;;;;3.63;3.22;;;17.90;71.30;;;;;;5033163;28;20049;-69
2022/09/01 05:16:08;;;;;;;7.45;3.25;;;18.00;71.20;;;;;;5033161;28;20060;-69
2022/09/01 05:18:43;;;;;;;6.45;3.10;;;18.00;71.20;;;;;;5048199;28;20033;-68
2022/09/01 05:21:09;;;;;;;5.07;3.30;;;18.00;71.10;;;;;;5053061;28;20044;-69
2022/09/01 05:23:39;;;;;;;3.33;3.03;;;18.10;71.00;;;;;;5052734;28;20044;-68
2022/09/01 05:26:15;;;;;;;4.40;4.00;;;18.20;70.80;;;;;;5052046;28;20055;-69
2022/09/01 05:28:44;;;;;;;6.40;3.05;;;18.20;70.70;;;;;;5047623;28;20068;-69
2022/09/01 05:31:11;;;;;;;3.65;3.08;;;18.20;70.60;;;;;;5036336;28;20021;-69
2022/09/01 05:33:44;;;;;;;4.43;3.05;;;18.20;70.40;;;;;;5032305;28;20025;-68
2022/09/01 05:36:11;;;;;;;4.50;3.10;;;18.20;70.20;;;;;;5032805;28;20113;-68
2022/09/01 05:38:41;;;;;;;4.45;3.40;;;18.20;70.20;;;;;;5032889;28;20033;-69
2022/09/01 05:41:10;;;;;;;4.93;2.75;;;18.30;70.20;;;;;;5032871;28;20025;-69
2022/09/01 05:43:36;;;;;;;3.88;2.60;;;18.30;70.10;;;;;;5032753;28;20025;-68
2022/09/01 05:46:07;;;;;;;3.67;2.92;;;18.30;70.10;;;;;;5032807;28;20026;-69
2022/09/01 05:48:38;;;;;;;3.88;2.70;;;18.30;70.00;;;;;;5047000;28;20032;-69
2022/09/01 05:51:08;;;;;;;3.40;2.67;;;18.30;69.90;;;;;;5052731;28;20443;-69
2022/09/01 05:53:34;;;;;;;3.97;2.50;;;18.30;69.90;;;;;;5052945;28;20031;-68
2022/09/01 05:56:06;;;;;;;4.38;2.65;;;18.30;69.70;;;;;;5055443;28;20021;-68
2022/09/01 05:58:33;;;;;;;11.88;2.85;;;18.40;69.80;;;;;;5056798;28;20032;-69
2022/09/01 06:01:00;;;;;;;4.63;2.80;;;18.40;69.80;;;;;;5056631;28;20032;-69
2022/09/01 06:03:27;;;;;;;6.22;2.55;;;18.40;69.80;;;;;;5056630;28;20025;-68
2022/09/01 06:05:54;;;;;;;3.45;2.22;;;18.40;69.90;;;;;;5056754;28;20028;-69
2022/09/01 06:08:27;;;;;;;7.97;2.35;;;18.40;69.90;;;;;;5038808;28;20033;-69
2022/09/01 06:10:53;;;;;;;3.33;2.10;;;18.50;69.80;;;;;;5046283;28;20014;-69
2022/09/01 06:13:20;;;;;;;5.80;2.80;;;18.50;70.60;;;;;;5036310;28;20505;-69
2022/09/01 06:15:49;;;;;;;7.82;2.83;;;18.60;69.70;;;;;;5036077;28;20052;-69
2022/09/01 06:18:20;;;;;;;8.35;2.70;;;18.60;68.90;;;;;;5044231;28;20018;-69
2022/09/01 06:20:46;;;;;;;10.57;3.55;;;18.70;68.40;;;;;;5036555;28;20026;-69
2022/09/01 06:23:14;;;;;;;8.27;3.50;;;18.70;67.70;;;;;;5036319;28;20045;-69
2022/09/01 06:25:45;;;;;;;8.85;3.92;;;18.80;67.50;;;;;;5037834;28;20029;-68
2022/09/01 06:28:16;;;;;;;7.07;3.00;;;18.90;67.70;;;;;;5044332;28;20056;-69
2022/09/01 06:30:44;;;;;;;4.18;2.40;;;18.90;67.60;;;;;;5056214;28;20474;-69
2022/09/01 06:33:12;;;;;;;10.00;4.07;;;19.00;67.70;;;;;;5049633;28;20573;-68
2022/09/01 06:35:43;;;;;;;60.35;13.63;;;19.10;67.80;;;;;;5034829;28;20033;-68
2022/09/01 06:38:12;;;;;;;37.85;10.25;;;19.10;67.40;;;;;;5052943;28;20036;-69
2022/09/01 06:40:40;;;;;;;139.10;29.08;;;19.20;67.00;;;;;;5037748;28;20112;-68
2022/09/01 06:43:06;;;;;;;36.15;10.52;;;19.30;66.90;;;;;;5035696;28;20057;-69
2022/09/01 06:45:39;;;;;;;8.40;4.15;;;19.40;66.80;;;;;;5036041;28;20087;-69
2022/09/01 06:48:05;;;;;;;4.63;2.45;;;19.50;66.40;;;;;;5045959;28;20025;-69
2022/09/01 06:50:31;;;;;;;3.03;2.40;;;19.60;65.70;;;;;;5055892;28;20044;-69
2022/09/01 06:53:07;;;;;;;3.05;2.25;;;19.70;65.20;;;;;;5037835;28;20495;-69
2022/09/01 06:55:36;;;;;;;3.17;2.42;;;19.80;64.70;;;;;;5055847;28;20025;-69
2022/09/01 06:58:05;;;;;;;3.13;2.40;;;19.80;64.30;;;;;;5055637;28;20017;-69
2022/09/01 07:00:34;;;;;;;6.65;2.13;;;20.00;63.70;;;;;;5054397;28;20028;-67
2022/09/01 07:03:08;;;;;;;5.97;2.40;;;20.10;63.80;;;;;;5055278;28;20411;-68
2022/09/01 07:05:38;;;;;;;5.03;2.33;;;20.20;63.20;;;;;;5055455;28;20039;-68
2022/09/01 07:08:09;;;;;;;6.40;2.40;;;20.30;62.60;;;;;;5054353;28;20029;-68
2022/09/01 07:10:48;;;;;;;3.13;2.25;;;20.40;62.70;;;;;;5037571;28;20040;-68
2022/09/01 07:13:21;;;;;;;6.45;2.50;;;20.40;62.00;;;;;;5055520;28;20106;-68
2022/09/01 07:15:48;;;;;;;2.63;2.15;;;20.60;62.40;;;;;;5055509;28;20494;-68
2022/09/01 07:18:16;;;;;;;4.10;2.30;;;20.70;62.20;;;;;;5043770;28;20419;-68
2022/09/01 07:20:43;;;;;;;13.57;2.70;;;20.80;62.00;;;;;;5035198;28;20025;-68
2022/09/01 07:23:10;;;;;;;4.28;2.25;;;20.90;62.10;;;;;;5035104;28;20041;-68
2022/09/01 07:25:42;;;;;;;2.70;2.20;;;21.00;61.70;;;;;;5035149;28;20013;-68
2022/09/01 07:28:09;;;;;;;4.80;2.10;;;21.20;60.90;;;;;;5035224;28;20021;-67
2022/09/01 07:30:47;;;;;;;4.18;2.50;;;21.30;60.40;;;;;;5035129;28;20036;-68
2022/09/01 07:33:14;;;;;;;3.75;2.15;;;21.40;59.90;;;;;;5035346;28;20075;-68
2022/09/01 07:35:41;;;;;;;4.03;2.25;;;21.50;59.60;;;;;;5035105;28;20477;-69
2022/09/01 07:38:08;;;;;;;4.43;2.22;;;21.60;59.20;;;;;;5034919;28;20382;-68
2022/09/01 07:40:37;;;;;;;3.47;2.22;;;21.60;59.00;;;;;;5034961;28;20101;-69
2022/09/01 07:43:16;;;;;;;3.47;2.13;;;21.70;58.80;;;;;;5034829;28;20474;-69
2022/09/01 07:45:46;;;;;;;2.80;1.98;;;21.80;59.10;;;;;;5034955;28;20541;-68
2022/09/01 07:48:13;;;;;;;4.03;2.28;;;21.90;59.30;;;;;;5045108;28;20081;-68
2022/09/01 07:50:46;;;;;;;3.67;2.05;;;22.00;58.40;;;;;;5036927;28;20425;-68
2022/09/01 07:53:17;;;;;;;3.55;2.33;;;22.20;57.90;;;;;;5036651;28;20025;-68
2022/09/01 07:55:49;;;;;;;3.20;2.05;;;22.30;57.60;;;;;;5054661;28;20079;-68
2022/09/01 07:58:16;;;;;;;1.98;1.70;;;22.40;57.20;;;;;;5054478;28;20411;-69
2022/09/01 08:00:45;;;;;;;2.15;1.95;;;22.50;56.90;;;;;;5054385;28;20493;-69
2022/09/01 08:03:11;;;;;;;2.17;1.85;;;22.70;57.40;;;;;;5054446;28;20032;-69
2022/09/01 08:05:37;;;;;;;4.45;2.42;;;22.80;56.50;;;;;;5054450;28;20031;-69
2022/09/01 08:08:03;;;;;;;5.93;2.80;;;22.90;55.40;;;;;;5054481;28;20021;-68
2022/09/01 08:10:29;;;;;;;2.97;2.10;;;23.00;55.10;;;;;;5054411;28;20028;-69
2022/09/01 08:12:55;;;;;;;3.33;2.05;;;23.00;55.00;;;;;;5054332;28;20029;-69
2022/09/01 08:15:21;;;;;;;3.33;1.92;;;23.10;55.30;;;;;;5054196;28;20032;-69
2022/09/01 08:17:47;;;;;;;9.32;1.80;;;23.10;55.00;;;;;;5046644;28;20029;-68
2022/09/01 08:20:13;;;;;;;10.85;2.28;;;23.20;54.80;;;;;;5034228;28;20593;-68
2022/09/01 08:22:39;;;;;;;1.75;1.52;;;23.20;53.20;;;;;;5033965;28;20483;-69
2022/09/01 08:25:07;;;;;;;4.60;1.70;;;23.40;54.50;;;;;;5032778;28;20028;-69
2022/09/01 08:27:37;;;;;;;1.98;1.67;;;23.40;53.90;;;;;;5034094;28;20025;-69
2022/09/01 08:30:09;;;;;;;2.80;1.63;;;23.60;52.90;;;;;;5034140;28;20100;-69
2022/09/01 08:32:36;;;;;;;2.67;1.77;;;23.60;52.40;;;;;;5034039;28;20036;-69
2022/09/01 08:35:06;;;;;;;3.45;1.75;;;23.70;52.50;;;;;;5034043;28;20029;-69
2022/09/01 08:37:32;;;;;;;3.15;1.50;;;23.70;50.80;;;;;;5032698;28;20029;-69
2022/09/01 08:39:58;;;;;;;2.22;1.85;;;23.70;51.40;;;;;;5033623;28;20037;-69
2022/09/01 08:43:06;;;;;;;5.32;1.65;;;23.70;51.70;;;;;;5033586;28;20104;-68
2022/09/01 08:45:37;;;;;;;4.88;1.95;;;23.60;50.80;;;;;;5033508;28;20028;-68
2022/09/01 08:48:15;;;;;;;5.68;2.58;;;23.60;49.90;;;;;;5024190;28;20056;-69
2022/09/01 08:50:44;;;;;;;4.80;2.08;;;23.50;50.10;;;;;;5053496;28;20028;-69
2022/09/01 08:53:27;;;;;;;1.83;1.30;;;23.40;49.30;;;;;;5053424;28;20025;-69
2022/09/01 08:55:57;;;;;;;4.53;1.73;;;23.30;50.70;;;;;;5053378;28;20025;-69
2022/09/01 08:58:24;;;;;;;3.45;2.13;;;23.30;50.40;;;;;;5053505;28;20025;-69
2022/09/01 09:01:01;;;;;;;3.35;1.80;;;23.40;49.80;;;;;;5053348;28;20504;-69
2022/09/01 09:04:01;;;;;;;3.58;1.77;;;23.30;49.70;;;;;;5053229;28;20029;-69
2022/09/01 09:06:42;;;;;;;2.70;1.60;;;23.30;50.80;;;;;;5033234;28;20033;-69
2022/09/01 09:09:09;;;;;;;3.67;1.77;;;23.30;50.40;;;;;;5053320;28;20505;-69
2022/09/01 09:11:44;;;;;;;2.55;1.67;;;23.30;49.10;;;;;;5053177;28;20021;-68
2022/09/01 09:14:37;;;;;;;5.57;1.67;;;23.30;48.50;;;;;;5053235;28;20025;-69
2022/09/01 09:17:04;;;;;;;1.77;1.10;;;23.20;49.10;;;;;;5052628;28;20021;-68
2022/09/01 09:19:41;;;;;;;2.72;1.52;;;23.20;49.50;;;;;;5033339;28;20013;-68
2022/09/01 09:22:16;;;;;;;5.03;1.88;;;23.20;49.50;;;;;;5033021;28;20049;-69
2022/09/01 09:24:59;;;;;;;2.60;1.60;;;23.20;49.70;;;;;;5013538;28;20058;-68
2022/09/01 09:27:40;;;;;;;1.98;1.35;;;23.20;50.10;;;;;;5013398;28;20025;-68
2022/09/01 09:30:11;;;;;;;2.13;1.48;;;23.20;49.60;;;;;;5012833;28;20376;-69
2022/09/01 09:32:52;;;;;;;5.45;1.55;;;23.30;50.00;;;;;;5013363;28;20026;-69
2022/09/01 09:35:32;;;;;;;4.60;1.50;;;23.40;49.20;;;;;;5013318;28;20033;-69
2022/09/01 09:38:21;;;;;;;3.90;1.80;;;23.50;49.50;;;;;;5013263;28;20026;-67
2022/09/01 09:41:00;;;;;;;2.58;1.70;;;23.70;49.80;;;;;;5013322;28;20487;-69
2022/09/01 09:43:28;;;;;;;10.25;2.42;;;23.90;49.70;;;;;;5013183;28;20030;-69
2022/09/01 09:46:20;;;;;;;1.83;1.25;;;24.10;48.00;;;;;;5013232;28;20090;-69
2022/09/01 09:48:47;;;;;;;3.08;1.60;;;24.40;49.30;;;;;;4990323;28;20064;-68
2022/09/01 09:51:19;;;;;;;2.10;1.45;;;24.60;47.70;;;;;;5013110;28;20053;-68
2022/09/01 09:53:45;;;;;;;3.38;1.80;;;24.90;47.40;;;;;;5013077;28;20022;-69
2022/09/01 09:56:25;;;;;;;2.22;1.65;;;25.20;47.10;;;;;;5013204;28;20143;-68
2022/09/01 09:58:52;;;;;;;3.83;2.08;;;25.30;46.60;;;;;;5013106;28;20037;-67
2022/09/01 10:01:24;;;;;;;7.38;2.22;;;25.50;45.70;;;;;;5013092;28;20117;-67
2022/09/01 10:03:51;;;;;;;4.80;2.47;;;25.60;44.80;;;;;;5012922;28;20080;-67
2022/09/01 10:06:31;;;;;;;4.63;2.08;;;25.70;45.20;;;;;;5013078;28;20037;-67
2022/09/01 10:08:59;;;;;;;2.72;1.65;;;25.70;44.50;;;;;;5013035;28;20018;-66
2022/09/01 10:11:39;;;;;;;2.92;1.42;;;25.70;44.00;;;;;;5013036;28;20104;-68
2022/09/01 10:14:20;;;;;;;2.38;1.60;;;25.60;44.40;;;;;;5012980;28;20460;-68
2022/09/01 10:17:09;;;;;;;2.33;1.42;;;25.60;45.00;;;;;;5012859;28;20026;-67
2022/09/01 10:19:40;;;;;;;1.83;1.42;;;25.50;44.50;;;;;;5016909;28;20017;-68
2022/09/01 10:22:08;;;;;;;2.92;1.70;;;25.40;44.10;;;;;;5032223;28;20103;-68
2022/09/01 10:24:37;;;;;;;2.05;1.65;;;25.30;43.60;;;;;;5031293;28;20104;-68
2022/09/01 10:27:09;;;;;;;1.90;1.30;;;25.20;43.50;;;;;;5032491;28;20024;-67
2022/09/01 10:29:42;;;;;;;2.58;1.60;;;25.00;43.80;;;;;;5032551;28;20022;-67
2022/09/01 10:32:12;;;;;;;2.30;1.17;;;24.90;43.80;;;;;;5032466;28;20386;-67
2022/09/01 10:34:39;;;;;;;3.38;1.65;;;24.80;44.40;;;;;;5032483;28;20026;-67
2022/09/01 10:37:06;;;;;;;2.20;1.40;;;24.80;44.40;;;;;;5032376;28;20029;-67
2022/09/01 10:39:32;;;;;;;4.70;1.73;;;24.70;44.80;;;;;;5032359;28;20029;-66
2022/09/01 10:42:06;;;;;;;2.90;1.67;;;24.60;44.30;;;;;;5034633;28;20499;-68
2022/09/01 10:44:33;;;;;;;;;;;24.50;44.60;;;;;;5035188;28;20021;-68
2022/09/01 10:47:28;;;;;;;1.77;1.20;;;24.50;46.00;;;;;;5036071;28;19912;-67
2022/09/01 10:49:54;;;;;;;1.75;1.27;;;24.50;45.00;;;;;;5016151;28;20088;-67
2022/09/01 10:52:57;;;;;;;2.47;1.42;;;24.50;45.20;;;;;;5016107;28;20438;-67
2022/09/01 10:55:24;;;;;;;2.97;1.45;;;24.60;46.40;;;;;;4974946;28;20027;-68
2022/09/01 10:58:13;;;;;;;5.00;1.90;;;24.60;46.60;;;;;;4974766;28;20046;-67
2022/09/01 11:00:38;;;;;;;6.82;1.38;;;24.70;46.70;;;;;;4974932;28;20034;-67
2022/09/01 11:03:10;;;;;;;4.38;1.60;;;24.80;46.60;;;;;;4974659;28;20039;-67
2022/09/01 11:05:54;;;;;;;2.85;1.58;;;24.90;46.80;;;;;;4958514;28;20054;-67
2022/09/01 11:08:23;;;;;;;6.68;1.65;;;24.90;46.40;;;;;;4974724;28;20035;-67
2022/09/01 11:11:04;;;;;;;3.17;1.50;;;25.00;46.30;;;;;;4974713;28;20102;-67
2022/09/01 11:13:44;;;;;;;2.75;1.88;;;25.00;46.00;;;;;;4974733;28;20424;-68
2022/09/01 11:16:29;;;;;;;4.03;1.50;;;25.00;46.20;;;;;;4974644;28;20121;-67
2022/09/01 11:19:15;;;;;;;3.22;1.80;;;25.00;46.30;;;;;;4974206;28;20035;-68
2022/09/01 11:21:41;;;;;;;5.35;2.05;;;25.00;45.80;;;;;;4974153;28;20109;-68
2022/09/01 11:24:37;;;;;;;5.63;1.63;;;25.00;45.90;;;;;;4974298;28;20492;-67
2022/09/01 11:27:23;;;;;;;3.13;1.70;;;24.90;46.20;;;;;;4958128;28;20061;-67
2022/09/01 11:29:59;;;;;;;2.75;1.88;;;24.90;46.30;;;;;;5003307;28;20029;-68
2022/09/01 11:32:33;;;;;;;1.83;1.60;;;24.90;46.00;;;;;;5015413;28;20472;-68
2022/09/01 11:35:20;;;;;;;2.17;1.40;;;24.90;45.40;;;;;;5015509;28;20068;-68
2022/09/01 11:37:53;;;;;;;4.13;1.70;;;24.90;45.00;;;;;;5014899;28;20408;-68
2022/09/01 11:40:37;;;;;;;6.60;1.90;;;24.90;45.00;;;;;;5015157;28;20483;-67
2022/09/01 11:43:13;;;;;;;6.90;2.70;;;24.90;45.10;;;;;;5015187;28;20022;-68
2022/09/01 11:45:54;;;;;;;4.90;1.73;;;25.00;44.70;;;;;;5015505;28;20047;-68
2022/09/01 11:48:20;;;;;;;4.65;1.80;;;24.90;45.00;;;;;;5007398;28;20021;-68
2022/09/01 11:50:58;;;;;;;2.90;1.75;;;25.00;45.00;;;;;;5034903;28;20028;-68
2022/09/01 11:53:25;;;;;;;8.45;1.80;;;24.90;45.00;;;;;;5033997;28;20022;-68
2022/09/01 11:55:55;;;;;;;4.38;1.60;;;24.90;45.00;;;;;;5034662;28;20033;-68
2022/09/01 11:58:26;;;;;;;3.35;1.77;;;24.90;44.90;;;;;;5016947;28;20033;-68
2022/09/01 12:00:53;;;;;;;3.65;1.73;;;24.90;45.20;;;;;;5034700;28;20036;-68
2022/09/01 12:03:25;;;;;;;3.92;1.58;;;24.90;45.20;;;;;;5034505;28;20093;-68
2022/09/01 12:06:04;;;;;;;2.28;1.50;;;24.90;45.40;;;;;;5034566;28;20083;-68
2022/09/01 12:08:34;;;;;;;2.13;1.40;;;24.90;45.80;;;;;;5034563;28;20017;-68
2022/09/01 12:11:10;;;;;;;2.72;1.70;;;24.90;45.50;;;;;;5034422;28;20049;-68
2022/09/01 12:13:36;;;;;;;7.38;1.50;;;25.00;45.90;;;;;;5033182;28;20033;-68
2022/09/01 12:16:06;;;;;;;2.40;1.40;;;25.00;45.60;;;;;;5034376;28;20021;-69
2022/09/01 12:18:42;;;;;;;3.58;1.45;;;25.00;45.50;;;;;;5040135;28;20086;-68
2022/09/01 12:21:19;;;;;;;3.90;1.40;;;25.10;45.00;;;;;;5034294;28;20064;-68
2022/09/01 12:23:45;;;;;;;1.90;0.85;;;25.10;43.90;;;;;;5032783;28;20045;-68
2022/09/01 12:26:25;;;;;;;2.15;1.35;;;25.20;44.70;;;;;;5034036;28;20025;-68
2022/09/01 12:28:52;;;;;;;2.08;1.20;;;25.20;44.10;;;;;;5034082;28;20033;-68
2022/09/01 12:31:25;;;;;;;2.30;1.15;;;25.30;44.40;;;;;;5033966;28;20139;-68
2022/09/01 12:33:53;;;;;;;2.22;1.10;;;25.30;43.80;;;;;;5033746;28;20029;-68
2022/09/01 12:36:34;;;;;;;1.98;1.08;;;25.40;44.10;;;;;;5032597;28;20030;-68
2022/09/01 12:39:23;;;;;;;2.95;1.27;;;25.40;43.20;;;;;;5033752;28;20033;-68
2022/09/01 12:42:18;;;;;;;3.38;1.10;;;25.40;43.00;;;;;;5033782;28;20025;-69
2022/09/01 12:44:50;;;;;;;1.90;1.10;;;25.40;43.90;;;;;;5033621;28;20163;-67
2022/09/01 12:47:34;;;;;;;1.13;0.98;;;25.40;43.80;;;;;;5033494;28;20448;-67
2022/09/01 12:50:03;;;;;;;3.55;1.02;;;25.40;43.90;;;;;;5053232;28;20040;-68
2022/09/01 12:52:31;;;;;;;2.17;1.20;;;25.40;44.20;;;;;;5053475;28;20028;-67
2022/09/01 12:55:03;;;;;;;2.10;1.35;;;25.40;44.30;;;;;;5053487;28;20443;-68
2022/09/01 12:57:30;;;;;;;2.45;1.30;;;25.50;44.20;;;;;;5053275;28;20059;-68
2022/09/01 13:00:14;;;;;;;2.45;1.30;;;25.50;43.50;;;;;;5051990;28;20079;-68
2022/09/01 13:02:42;;;;;;;1.30;1.15;;;25.50;44.40;;;;;;5053142;28;20470;-67
2022/09/01 13:05:35;;;;;;;3.33;1.60;;;25.50;44.00;;;;;;5052489;28;20100;-69
2022/09/01 13:08:05;;;;;;;4.22;1.88;;;25.50;44.40;;;;;;5053309;28;20024;-69
2022/09/01 13:10:40;;;;;;;3.85;1.95;;;25.50;43.70;;;;;;5053313;28;20038;-66